sensor_id;sensor_type;location;lat;lon;timestamp;pressure;altitude;pressure_sealevel;temperature;humidity
64243;BME280;50573;51.512;5.386;2022-10-31T00:03:01;101912.94;;;11.69;100.00
64243;BME280;50573;51.512;5.386;2022-10-31T00:13:04;101927.63;;;11.70;100.00
64243;BME280;50573;51.512;5.386;2022-10-31T00:23:09;101920.72;;;11.71;100.00
64243;BME280;50573;51.512;5.386;2022-10-31T00:33:13;101924.09;;;11.59;100.00
64243;BME280;50573;51.512;5.386;2022-10-31T00:43:18;101909.31;;;11.46;100.00
64243;BME280;50573;51.512;5.386;2022-10-31T00:53:21;101902.31;;;11.32;100.00
64243;BME280;50573;51.512;5.386;2022-10-31T01:03:27;101921.31;;;11.33;100.00
64243;BME280;50573;51.512;5.386;2022-10-31T01:13:30;101890.22;;;11.27;100.00
64243;BME280;50573;51.512;5.386;2022-10-31T01:23:34;101889.28;;;11.20;100.00
64243;BME280;50573;51.512;5.386;2022-10-31T01:33:39;101900.34;;;11.05;100.00
64243;BME280;50573;51.512;5.386;2022-10-31T01:43:50;101908.84;;;10.92;100.00
64243;BME280;50573;51.512;5.386;2022-10-31T01:53:55;101900.88;;;10.71;100.00
64243;BME280;50573;51.512;5.386;2022-10-31T02:04:02;101898.19;;;10.61;100.00
64243;BME280;50573;51.512;5.386;2022-10-31T02:14:05;101894.69;;;10.54;100.00
64243;BME280;50573;51.512;5.386;2022-10-31T02:24:33;101892.81;;;10.42;100.00
64243;BME280;50573;51.512;5.386;2022-10-31T02:34:46;101884.78;;;10.22;100.00
64243;BME280;50573;51.512;5.386;2022-10-31T02:44:55;101879.34;;;10.03;100.00
64243;BME280;50573;51.512;5.386;2022-10-31T02:55:09;101887.78;;;9.90;100.00
64243;BME280;50573;51.512;5.386;2022-10-31T03:05:23;101882.56;;;9.85;100.00
64243;BME280;50573;51.512;5.386;2022-10-31T03:15:33;101884.25;;;9.83;100.00
64243;BME280;50573;51.512;5.386;2022-10-31T03:25:37;101885.03;;;9.78;100.00
64243;BME280;50573;51.512;5.386;2022-10-31T03:35:46;101884.94;;;9.70;100.00
64243;BME280;50573;51.512;5.386;2022-10-31T03:45:49;101885.63;;;9.58;100.00
64243;BME280;50573;51.512;5.386;2022-10-31T03:55:59;101872.63;;;9.52;100.00
64243;BME280;50573;51.512;5.386;2022-10-31T04:06:08;101874.34;;;9.53;100.00
64243;BME280;50573;51.512;5.386;2022-10-31T04:16:15;101881.16;;;9.49;100.00
64243;BME280;50573;51.512;5.386;2022-10-31T04:26:19;101884.91;;;9.69;100.00
64243;BME280;50573;51.512;5.386;2022-10-31T04:36:23;101895.53;;;9.92;100.00
64243;BME280;50573;51.512;5.386;2022-10-31T04:46:27;101887.91;;;9.98;100.00
64243;BME280;50573;51.512;5.386;2022-10-31T04:56:34;101891.44;;;10.06;100.00
64243;BME280;50573;51.512;5.386;2022-10-31T05:06:44;101879.28;;;9.97;100.00
64243;BME280;50573;51.512;5.386;2022-10-31T05:16:49;101869.66;;;9.87;100.00
64243;BME280;50573;51.512;5.386;2022-10-31T05:27:24;101870.28;;;9.69;100.00
64243;BME280;50573;51.512;5.386;2022-10-31T05:37:29;101863.31;;;9.65;100.00
64243;BME280;50573;51.512;5.386;2022-10-31T05:47:34;101851.25;;;9.62;100.00
64243;BME280;50573;51.512;5.386;2022-10-31T05:57:57;101844.38;;;9.63;100.00
64243;BME280;50573;51.512;5.386;2022-10-31T06:08:01;101838.22;;;9.55;100.00
64243;BME280;50573;51.512;5.386;2022-10-31T06:18:08;101843.38;;;9.55;100.00
64243;BME280;50573;51.512;5.386;2022-10-31T06:28:20;101958.06;;;9.71;100.00
64243;BME280;50573;51.512;5.386;2022-10-31T06:38:31;101980.66;;;9.84;100.00
64243;BME280;50573;51.512;5.386;2022-10-31T06:48:35;101965.19;;;9.85;100.00
64243;BME280;50573;51.512;5.386;2022-10-31T06:58:54;101985.34;;;10.08;100.00
64243;BME280;50573;51.512;5.386;2022-10-31T07:09:16;102004.72;;;10.36;100.00
64243;BME280;50573;51.512;5.386;2022-10-31T07:19:22;101975.69;;;10.56;100.00
64243;BME280;50573;51.512;5.386;2022-10-31T07:29:25;101960.38;;;10.73;100.00
64243;BME280;50573;51.512;5.386;2022-10-31T07:39:29;101958.88;;;10.95;100.00
64243;BME280;50573;51.512;5.386;2022-10-31T07:49:33;101940.94;;;11.09;100.00
64243;BME280;50573;51.512;5.386;2022-10-31T08:00:10;101941.88;;;11.17;100.00
64243;BME280;50573;51.512;5.386;2022-10-31T08:10:16;101951.50;;;11.35;100.00
64243;BME280;50573;51.512;5.386;2022-10-31T08:20:20;101942.28;;;11.65;100.00
64243;BME280;50573;51.512;5.386;2022-10-31T08:30:25;101960.72;;;12.04;100.00
64243;BME280;50573;51.512;5.386;2022-10-31T08:40:49;101907.34;;;12.52;100.00
64243;BME280;50573;51.512;5.386;2022-10-31T08:50:56;101851.22;;;12.71;100.00
64243;BME280;50573;51.512;5.386;2022-10-31T09:01:01;101867.69;;;12.98;100.00
64243;BME280;50573;51.512;5.386;2022-10-31T09:11:05;101838.25;;;13.14;100.00
64243;BME280;50573;51.512;5.386;2022-10-31T09:21:36;101837.41;;;13.43;100.00
64243;BME280;50573;51.512;5.386;2022-10-31T09:31:39;101792.34;;;13.60;100.00
64243;BME280;50573;51.512;5.386;2022-10-31T09:42:37;101762.03;;;13.71;100.00
64243;BME280;50573;51.512;5.386;2022-10-31T09:52:56;101781.91;;;13.78;100.00
64243;BME280;50573;51.512;5.386;2022-10-31T10:03:10;101760.22;;;13.81;100.00
64243;BME280;50573;51.512;5.386;2022-10-31T10:13:32;101722.78;;;14.16;100.00
64243;BME280;50573;51.512;5.386;2022-10-31T10:23:51;101700.06;;;14.41;100.00
64243;BME280;50573;51.512;5.386;2022-10-31T10:34:02;101685.16;;;14.66;100.00
64243;BME280;50573;51.512;5.386;2022-10-31T10:44:10;101699.66;;;14.92;100.00
64243;BME280;50573;51.512;5.386;2022-10-31T10:54:29;101672.56;;;15.12;100.00
64243;BME280;50573;51.512;5.386;2022-10-31T11:04:39;101669.63;;;15.38;100.00
64243;BME280;50573;51.512;5.386;2022-10-31T11:14:46;101658.97;;;15.56;100.00
64243;BME280;50573;51.512;5.386;2022-10-31T11:24:51;101621.34;;;15.76;100.00
64243;BME280;50573;51.512;5.386;2022-10-31T11:34:57;101590.91;;;15.79;100.00
64243;BME280;50573;51.512;5.386;2022-10-31T11:45:06;101561.91;;;16.00;100.00
64243;BME280;50573;51.512;5.386;2022-10-31T11:55:25;101539.75;;;16.24;100.00
64243;BME280;50573;51.512;5.386;2022-10-31T12:05:33;101517.06;;;16.29;100.00
64243;BME280;50573;51.512;5.386;2022-10-31T12:15:38;101496.69;;;16.48;100.00
64243;BME280;50573;51.512;5.386;2022-10-31T12:25:47;101467.88;;;16.54;100.00
64243;BME280;50573;51.512;5.386;2022-10-31T12:36:11;101451.84;;;16.71;100.00
64243;BME280;50573;51.512;5.386;2022-10-31T12:46:27;101423.16;;;17.10;99.63
64243;BME280;50573;51.512;5.386;2022-10-31T12:56:42;101381.84;;;17.26;96.50
64243;BME280;50573;51.512;5.386;2022-10-31T13:06:57;101363.53;;;17.28;94.60
64243;BME280;50573;51.512;5.386;2022-10-31T13:17:01;101329.72;;;17.20;94.54
64243;BME280;50573;51.512;5.386;2022-10-31T13:27:13;101310.88;;;17.09;94.76
64243;BME280;50573;51.512;5.386;2022-10-31T13:37:22;101303.72;;;17.15;93.85
64243;BME280;50573;51.512;5.386;2022-10-31T13:47:30;101267.41;;;17.39;91.43
64243;BME280;50573;51.512;5.386;2022-10-31T13:57:38;101251.22;;;17.25;91.22
64243;BME280;50573;51.512;5.386;2022-10-31T14:07:45;101255.56;;;16.93;91.92
64243;BME280;50573;51.512;5.386;2022-10-31T14:17:51;101244.00;;;16.67;92.44
64243;BME280;50573;51.512;5.386;2022-10-31T14:27:56;101230.06;;;16.66;93.02
64243;BME280;50573;51.512;5.386;2022-10-31T14:38:21;101216.53;;;16.50;93.04
64243;BME280;50573;51.512;5.386;2022-10-31T14:48:41;101210.97;;;16.28;93.75
64243;BME280;50573;51.512;5.386;2022-10-31T14:58:47;101177.91;;;16.30;94.06
64243;BME280;50573;51.512;5.386;2022-10-31T15:08:53;101142.31;;;16.28;94.14
64243;BME280;50573;51.512;5.386;2022-10-31T15:18:59;101114.25;;;16.02;95.84
64243;BME280;50573;51.512;5.386;2022-10-31T15:29:10;101113.03;;;15.79;97.36
64243;BME280;50573;51.512;5.386;2022-10-31T15:39:13;101105.75;;;15.54;99.13
64243;BME280;50573;51.512;5.386;2022-10-31T15:49:27;101090.66;;;15.30;100.00
64243;BME280;50573;51.512;5.386;2022-10-31T15:59:40;101090.19;;;15.10;100.00
64243;BME280;50573;51.512;5.386;2022-10-31T16:09:54;101090.44;;;14.97;100.00
64243;BME280;50573;51.512;5.386;2022-10-31T16:19:59;101075.31;;;14.73;100.00
64243;BME280;50573;51.512;5.386;2022-10-31T16:30:37;101062.66;;;14.52;100.00
64243;BME280;50573;51.512;5.386;2022-10-31T16:40:47;101061.16;;;14.38;100.00
64243;BME280;50573;51.512;5.386;2022-10-31T16:50:53;101059.56;;;14.31;100.00
64243;BME280;50573;51.512;5.386;2022-10-31T17:00:56;101043.94;;;14.33;100.00
64243;BME280;50573;51.512;5.386;2022-10-31T17:11:01;101031.72;;;14.38;100.00
64243;BME280;50573;51.512;5.386;2022-10-31T17:21:05;101025.75;;;14.31;100.00
64243;BME280;50573;51.512;5.386;2022-10-31T17:31:20;101004.97;;;14.30;100.00
64243;BME280;50573;51.512;5.386;2022-10-31T17:41:23;100978.22;;;14.25;100.00
64243;BME280;50573;51.512;5.386;2022-10-31T17:51:28;100993.22;;;14.10;100.00
64243;BME280;50573;51.512;5.386;2022-10-31T18:01:30;101000.56;;;13.85;100.00
64243;BME280;50573;51.512;5.386;2022-10-31T18:11:35;100986.91;;;13.72;100.00
64243;BME280;50573;51.512;5.386;2022-10-31T18:21:38;100973.97;;;13.70;100.00
64243;BME280;50573;51.512;5.386;2022-10-31T18:31:43;100969.63;;;13.73;100.00
64243;BME280;50573;51.512;5.386;2022-10-31T18:41:49;100969.06;;;13.53;100.00
64243;BME280;50573;51.512;5.386;2022-10-31T18:51:53;100970.19;;;13.35;100.00
64243;BME280;50573;51.512;5.386;2022-10-31T19:01:56;100961.72;;;13.21;100.00
64243;BME280;50573;51.512;5.386;2022-10-31T19:12:01;100948.88;;;13.12;100.00
64243;BME280;50573;51.512;5.386;2022-10-31T19:22:04;100935.19;;;13.02;100.00
64243;BME280;50573;51.512;5.386;2022-10-31T19:32:08;100932.56;;;13.02;100.00
64243;BME280;50573;51.512;5.386;2022-10-31T19:42:11;100930.81;;;13.04;100.00
64243;BME280;50573;51.512;5.386;2022-10-31T19:52:16;100929.06;;;13.06;100.00
64243;BME280;50573;51.512;5.386;2022-10-31T20:02:19;100917.84;;;13.06;100.00
64243;BME280;50573;51.512;5.386;2022-10-31T20:12:23;100896.28;;;13.00;100.00
64243;BME280;50573;51.512;5.386;2022-10-31T20:22:26;100884.84;;;13.12;100.00
64243;BME280;50573;51.512;5.386;2022-10-31T20:32:31;100871.00;;;13.13;100.00
64243;BME280;50573;51.512;5.386;2022-10-31T20:42:34;100868.41;;;13.13;100.00
64243;BME280;50573;51.512;5.386;2022-10-31T20:52:39;100843.53;;;13.00;100.00
64243;BME280;50573;51.512;5.386;2022-10-31T21:02:42;100852.25;;;12.94;100.00
64243;BME280;50573;51.512;5.386;2022-10-31T21:12:46;100831.50;;;12.94;100.00
64243;BME280;50573;51.512;5.386;2022-10-31T21:22:49;100820.03;;;13.09;100.00
64243;BME280;50573;51.512;5.386;2022-10-31T21:32:54;100811.00;;;13.30;100.00
64243;BME280;50573;51.512;5.386;2022-10-31T21:42:57;100812.44;;;13.48;98.49
64243;BME280;50573;51.512;5.386;2022-10-31T21:53:02;100802.59;;;13.66;97.03
64243;BME280;50573;51.512;5.386;2022-10-31T22:03:19;100814.66;;;13.70;96.23
64243;BME280;50573;51.512;5.386;2022-10-31T22:13:23;100820.53;;;13.80;97.32
64243;BME280;50573;51.512;5.386;2022-10-31T22:23:26;100804.97;;;13.80;97.81
64243;BME280;50573;51.512;5.386;2022-10-31T22:33:31;100786.84;;;13.75;99.31
64243;BME280;50573;51.512;5.386;2022-10-31T22:43:34;100769.59;;;13.73;100.00
64243;BME280;50573;51.512;5.386;2022-10-31T22:53:38;100740.13;;;13.72;100.00
64243;BME280;50573;51.512;5.386;2022-10-31T23:03:41;100747.13;;;13.70;100.00
64243;BME280;50573;51.512;5.386;2022-10-31T23:13:47;100743.69;;;13.69;100.00
64243;BME280;50573;51.512;5.386;2022-10-31T23:24:07;100730.63;;;13.73;100.00
64243;BME280;50573;51.512;5.386;2022-10-31T23:34:12;100714.97;;;13.76;100.00
64243;BME280;50573;51.512;5.386;2022-10-31T23:44:15;100707.66;;;13.95;100.00
64243;BME280;50573;51.512;5.386;2022-10-31T23:54:19;100701.66;;;14.30;100.00
